createdAt,value
2018-03-29T00:02:15.185Z,99375.70
2018-03-29T00:04:43.670Z,99383.14
2018-03-29T00:07:12.174Z,99380.75
2018-03-29T00:09:40.677Z,99383.13
2018-03-29T00:12:09.138Z,99384.88
2018-03-29T00:14:37.638Z,99376.32
2018-03-29T00:17:06.102Z,99376.72
2018-03-29T00:19:34.598Z,99371.99
2018-03-29T00:22:03.052Z,99381.41
2018-03-29T00:24:31.550Z,99388.83
2018-03-29T00:27:00.015Z,99392.77
2018-03-29T00:29:28.506Z,99392.74
2018-03-29T00:31:56.978Z,99379.95
2018-03-29T00:34:25.505Z,99388.02
2018-03-29T00:36:53.965Z,99381.81
2018-03-29T00:39:22.462Z,99383.46
2018-03-29T00:41:50.934Z,99367.70
2018-03-29T00:44:19.398Z,99373.04
2018-03-29T00:46:48.845Z,99382.96
2018-03-29T00:49:17.348Z,99380.27
2018-03-29T00:51:45.810Z,99376.03
2018-03-29T00:54:14.301Z,99387.29
2018-03-29T00:56:42.778Z,99387.41
2018-03-29T00:59:11.285Z,99386.56
2018-03-29T01:01:39.806Z,99385.95
2018-03-29T01:04:08.274Z,99380.58
2018-03-29T01:06:36.746Z,99373.78
2018-03-29T01:09:05.305Z,99366.66
2018-03-29T01:11:33.818Z,99376.16
2018-03-29T01:14:02.338Z,99380.99
2018-03-29T01:16:30.801Z,99385.03
2018-03-29T01:18:59.321Z,99389.48
2018-03-29T01:21:27.782Z,99383.89
2018-03-29T01:23:56.237Z,99380.08
2018-03-29T01:26:24.730Z,99373.66
2018-03-29T01:28:53.225Z,99386.69
2018-03-29T01:31:21.685Z,99392.34
2018-03-29T01:33:50.186Z,99389.45
2018-03-29T01:36:18.677Z,99389.16
2018-03-29T01:38:47.154Z,99381.19
2018-03-29T01:41:15.642Z,99384.72
2018-03-29T01:43:44.110Z,99381.52
2018-03-29T01:46:12.618Z,99381.61
2018-03-29T01:48:41.069Z,99376.22
2018-03-29T01:51:09.526Z,99354.21
2018-03-29T01:53:38.022Z,99363.50
2018-03-29T01:56:06.517Z,99353.80
2018-03-29T01:58:35.028Z,99346.67
2018-03-29T02:01:03.497Z,99340.85
2018-03-29T02:03:32.010Z,99340.81
2018-03-29T02:06:00.518Z,99342.80
2018-03-29T02:08:28.994Z,99345.05
2018-03-29T02:10:57.455Z,99352.05
2018-03-29T02:13:25.946Z,99352.16
2018-03-29T02:15:54.461Z,99357.94
2018-03-29T02:18:23.747Z,99355.14
2018-03-29T02:20:52.202Z,99350.84
2018-03-29T02:23:20.697Z,99349.39
2018-03-29T02:25:49.172Z,99350.49
2018-03-29T02:28:17.674Z,99345.14
2018-03-29T02:30:46.134Z,99353.85
2018-03-29T02:33:14.591Z,99344.88
2018-03-29T02:35:43.096Z,99332.80
2018-03-29T02:38:11.580Z,99341.98
2018-03-29T02:40:40.085Z,99340.34
2018-03-29T02:43:08.763Z,99341.80
2018-03-29T02:45:37.379Z,99345.44
2018-03-29T02:48:05.863Z,99331.03
2018-03-29T02:50:34.385Z,99359.55
2018-03-29T02:53:02.904Z,99364.12
2018-03-29T02:55:31.370Z,99366.13
2018-03-29T02:57:59.891Z,99366.52
2018-03-29T03:00:28.350Z,99362.58
2018-03-29T03:02:57.029Z,99370.78
2018-03-29T03:05:25.810Z,99354.57
2018-03-29T03:07:54.352Z,99378.34
2018-03-29T03:10:23.001Z,99375.84
2018-03-29T03:12:51.533Z,99374.48
2018-03-29T03:15:19.994Z,99360.24
2018-03-29T03:17:48.486Z,99353.11
2018-03-29T03:20:17.767Z,99370.66
2018-03-29T03:22:46.550Z,99375.70
2018-03-29T03:25:15.244Z,99370.58
2018-03-29T03:27:43.997Z,99374.17
2018-03-29T03:30:12.651Z,99379.00
2018-03-29T03:32:41.310Z,99384.31
2018-03-29T03:35:10.033Z,99388.69
2018-03-29T03:37:38.578Z,99384.67
2018-03-29T03:40:07.318Z,99395.88
2018-03-29T03:42:36.035Z,99405.07
2018-03-29T03:45:04.574Z,99403.19
2018-03-29T03:47:33.048Z,99389.14
2018-03-29T03:50:01.700Z,99394.31
2018-03-29T03:52:30.311Z,99398.67
2018-03-29T03:54:58.794Z,99401.65
2018-03-29T03:57:27.298Z,99407.06
2018-03-29T03:59:55.754Z,99411.12
2018-03-29T04:02:24.452Z,99396.83
2018-03-29T04:04:52.959Z,99410.91
2018-03-29T04:07:21.649Z,99413.73
2018-03-29T04:09:50.206Z,99416.63
2018-03-29T04:12:18.681Z,99401.53
2018-03-29T04:14:47.827Z,99421.70
2018-03-29T04:17:16.361Z,99418.11
2018-03-29T04:19:44.830Z,99411.88
2018-03-29T04:22:13.323Z,99424.55
2018-03-29T04:24:41.814Z,99426.48
2018-03-29T04:27:10.346Z,99432.40
2018-03-29T04:29:38.869Z,99428.80
2018-03-29T04:32:07.369Z,99436.69
2018-03-29T04:34:35.830Z,99443.52
2018-03-29T04:37:04.346Z,99448.05
2018-03-29T04:39:32.817Z,99438.95
2018-03-29T04:42:01.321Z,99441.19
2018-03-29T04:44:29.786Z,99451.06
2018-03-29T04:46:58.282Z,99451.02
2018-03-29T04:49:26.802Z,99446.70
2018-03-29T04:51:55.284Z,99460.36
2018-03-29T04:54:23.760Z,99455.44
2018-03-29T04:56:52.271Z,99462.56
2018-03-29T04:59:20.774Z,99465.71
2018-03-29T05:01:49.274Z,99459.91
2018-03-29T05:04:17.738Z,99457.88
2018-03-29T05:06:46.238Z,99466.88
2018-03-29T05:09:14.711Z,99460.31
2018-03-29T05:11:43.214Z,99470.31
2018-03-29T05:14:11.685Z,99438.35
2018-03-29T05:16:40.200Z,99470.73
2018-03-29T05:19:08.705Z,99478.39
2018-03-29T05:21:37.189Z,99479.97
2018-03-29T05:24:05.721Z,99490.72
2018-03-29T05:26:39.157Z,99489.80
2018-03-29T05:29:07.658Z,99486.41
2018-03-29T05:31:36.154Z,99494.33
2018-03-29T05:34:04.651Z,99472.45
2018-03-29T05:36:33.150Z,99486.50
2018-03-29T05:39:01.687Z,99498.47
2018-03-29T05:41:30.279Z,99500.13
2018-03-29T05:43:58.786Z,99509.03
2018-03-29T05:46:27.265Z,99507.95
2018-03-29T05:48:55.782Z,99510.98
2018-03-29T05:51:24.262Z,99511.89
2018-03-29T05:53:52.729Z,99516.09
2018-03-29T05:56:21.245Z,99513.45
2018-03-29T05:58:49.702Z,99515.23
2018-03-29T06:01:18.167Z,99507.82
2018-03-29T06:03:46.682Z,99510.99
2018-03-29T06:06:15.195Z,99532.20
2018-03-29T06:08:43.729Z,99526.97
2018-03-29T06:11:12.233Z,99525.64
2018-03-29T06:13:40.721Z,99538.05
2018-03-29T06:16:09.270Z,99533.09
2018-03-29T06:18:37.835Z,99536.47
2018-03-29T06:21:06.330Z,99531.78
2018-03-29T06:23:34.858Z,99543.08
2018-03-29T06:26:03.339Z,99549.22
2018-03-29T06:28:31.890Z,99553.10
2018-03-29T06:31:00.346Z,99555.17
2018-03-29T06:33:28.859Z,99523.59
2018-03-29T06:35:57.362Z,99550.77
2018-03-29T06:38:25.888Z,99560.22
2018-03-29T06:40:54.345Z,99557.19
2018-03-29T06:43:22.811Z,99547.93
2018-03-29T06:45:51.333Z,99551.42
2018-03-29T06:48:19.920Z,99555.69
2018-03-29T06:50:48.392Z,99562.27
2018-03-29T06:53:16.930Z,99558.45
2018-03-29T06:55:45.434Z,99565.72
2018-03-29T06:58:13.930Z,99569.48
2018-03-29T07:00:42.473Z,99567.85
2018-03-29T07:03:10.993Z,99574.44
2018-03-29T07:05:39.467Z,99569.22
2018-03-29T07:08:07.982Z,99565.07
2018-03-29T07:10:36.490Z,99569.95
2018-03-29T07:13:04.998Z,99559.87
2018-03-29T07:15:33.457Z,99561.34
2018-03-29T07:18:02.013Z,99570.06
2018-03-29T07:20:31.265Z,99575.47
2018-03-29T07:22:59.871Z,99577.27
2018-03-29T07:25:28.403Z,99560.89
2018-03-29T07:27:56.892Z,99586.26
2018-03-29T07:30:25.394Z,99586.73
2018-03-29T07:32:53.875Z,99589.26
2018-03-29T07:35:22.408Z,99584.73
2018-03-29T07:37:50.881Z,99588.18
2018-03-29T07:40:19.401Z,99594.75
2018-03-29T07:42:47.957Z,99562.50
2018-03-29T07:45:16.510Z,99599.69
2018-03-29T07:47:45.012Z,99601.64
2018-03-29T07:50:13.522Z,99606.05
2018-03-29T07:52:41.986Z,99594.04
2018-03-29T07:55:10.493Z,99616.53
2018-03-29T07:57:38.977Z,99618.56
2018-03-29T08:00:07.507Z,99615.92
2018-03-29T08:02:36.071Z,99621.20
2018-03-29T08:05:04.610Z,99630.78
2018-03-29T08:07:33.118Z,99614.42
2018-03-29T08:10:01.587Z,99621.77
2018-03-29T08:12:30.149Z,99617.09
2018-03-29T08:14:58.630Z,99616.52
2018-03-29T08:17:27.146Z,99615.19
2018-03-29T08:19:55.610Z,99613.57
2018-03-29T08:22:24.078Z,99620.58
2018-03-29T08:24:52.588Z,99614.30
2018-03-29T08:27:21.118Z,99609.09
2018-03-29T08:29:49.634Z,99616.91
2018-03-29T08:32:18.110Z,99617.16
2018-03-29T08:34:46.630Z,99615.50
2018-03-29T08:37:15.187Z,99602.39
2018-03-29T08:39:43.706Z,99607.68
2018-03-29T08:42:12.206Z,99605.72
2018-03-29T08:44:40.720Z,99613.09
2018-03-29T08:47:09.199Z,99609.33
2018-03-29T08:49:37.732Z,99590.73
2018-03-29T08:52:06.241Z,99596.12
2018-03-29T08:54:34.750Z,99606.80
2018-03-29T08:57:03.231Z,99605.37
2018-03-29T08:59:31.714Z,99604.02
2018-03-29T09:02:00.224Z,99598.45
2018-03-29T09:04:28.694Z,99593.16
2018-03-29T09:06:57.197Z,99558.02
2018-03-29T09:09:25.719Z,99587.12
2018-03-29T09:11:54.210Z,99585.91
2018-03-29T09:17:02.798Z,99590.50
2018-03-29T09:19:31.294Z,99585.24
2018-03-29T09:21:59.827Z,99585.61
2018-03-29T09:24:28.352Z,99583.89
2018-03-29T09:26:56.886Z,99556.77
2018-03-29T09:29:25.395Z,99558.42
2018-03-29T09:31:53.859Z,99569.03
2018-03-29T09:34:22.358Z,99576.66
2018-03-29T09:36:50.882Z,99583.64
2018-03-29T09:39:19.390Z,99576.89
2018-03-29T09:41:47.910Z,99577.30
2018-03-29T09:44:16.370Z,99580.36
2018-03-29T09:46:44.865Z,99558.02
2018-03-29T09:49:13.434Z,99576.60
2018-03-29T09:51:41.966Z,99580.06
2018-03-29T09:54:10.466Z,99587.84
2018-03-29T09:56:38.962Z,99546.44
2018-03-29T09:59:07.426Z,99575.73
2018-03-29T10:01:36.003Z,99575.47
2018-03-29T10:04:10.138Z,99564.00
2018-03-29T10:06:44.086Z,99575.49
2018-03-29T10:09:12.755Z,99572.63
2018-03-29T10:11:41.273Z,99558.11
2018-03-29T10:14:09.809Z,99571.64
2018-03-29T10:16:38.408Z,99578.98
2018-03-29T10:19:06.983Z,99567.28
2018-03-29T10:21:35.438Z,99569.22
2018-03-29T10:24:03.940Z,99568.95
2018-03-29T10:26:32.436Z,99565.70
2018-03-29T10:29:00.949Z,99534.64
2018-03-29T10:31:29.457Z,99565.02
2018-03-29T10:33:57.978Z,99555.05
2018-03-29T10:36:26.485Z,99562.55
2018-03-29T10:38:54.987Z,99561.34
2018-03-29T10:41:23.488Z,99550.54
2018-03-29T10:43:51.960Z,99534.98
2018-03-29T10:46:20.478Z,99528.69
2018-03-29T10:48:48.976Z,99549.25
2018-03-29T10:51:17.663Z,99554.89
2018-03-29T10:53:46.122Z,99552.58
2018-03-29T10:56:14.627Z,99548.91
2018-03-29T10:58:43.207Z,99552.58
2018-03-29T11:01:11.663Z,99548.63
2018-03-29T11:03:40.276Z,99546.72
2018-03-29T11:06:08.744Z,99551.37
2018-03-29T11:08:37.244Z,99544.94
2018-03-29T11:11:05.702Z,99539.20
2018-03-29T11:13:34.210Z,99541.91
2018-03-29T11:16:02.682Z,99537.29
2018-03-29T11:18:31.169Z,99530.87
2018-03-29T11:20:59.630Z,99539.19
2018-03-29T11:23:28.109Z,99533.88
2018-03-29T11:25:56.561Z,99531.84
2018-03-29T11:28:25.055Z,99531.11
2018-03-29T11:30:53.560Z,99521.02
2018-03-29T11:33:22.015Z,99520.47
2018-03-29T11:35:50.498Z,99518.54
2018-03-29T11:38:18.950Z,99513.66
2018-03-29T11:40:47.460Z,99509.00
2018-03-29T11:43:15.940Z,99514.05
2018-03-29T11:45:44.426Z,99502.98
2018-03-29T11:48:12.909Z,99503.52
2018-03-29T11:50:41.370Z,99493.84
2018-03-29T11:53:09.858Z,99503.52
2018-03-29T11:55:38.312Z,99502.42
2018-03-29T11:58:06.810Z,99498.46
2018-03-29T12:00:35.275Z,99500.77
2018-03-29T12:03:03.826Z,99497.89
2018-03-29T12:05:32.328Z,99494.30
2018-03-29T12:08:00.883Z,99474.91
2018-03-29T12:10:29.461Z,99465.89
2018-03-29T12:12:57.921Z,99481.80
2018-03-29T12:15:26.413Z,99482.77
2018-03-29T12:17:54.885Z,99471.55
2018-03-29T12:20:23.404Z,99473.66
2018-03-29T12:22:51.876Z,99469.23
2018-03-29T12:25:20.335Z,99475.14
2018-03-29T12:27:48.842Z,99462.84
2018-03-29T12:30:17.431Z,99464.50
2018-03-29T12:32:45.937Z,99455.33
2018-03-29T12:35:14.438Z,99456.81
2018-03-29T12:37:42.894Z,99451.84
2018-03-29T12:40:11.349Z,99441.01
2018-03-29T12:42:39.830Z,99445.30
2018-03-29T12:45:08.350Z,99444.86
2018-03-29T12:47:36.858Z,99440.70
2018-03-29T12:50:05.370Z,99431.28
2018-03-29T12:52:33.852Z,99434.69
2018-03-29T12:55:14.078Z,99438.33
2018-03-29T12:57:54.158Z,99430.86
2018-03-29T13:00:22.622Z,99428.30
2018-03-29T13:02:51.174Z,99428.81
2018-03-29T13:05:19.678Z,99431.38
2018-03-29T13:07:48.209Z,99431.86
2018-03-29T13:10:16.672Z,99435.16
2018-03-29T13:12:45.123Z,99436.23
2018-03-29T13:15:13.606Z,99416.55
2018-03-29T13:17:42.078Z,99427.47
2018-03-29T13:20:10.599Z,99429.22
2018-03-29T13:22:39.129Z,99421.94
2018-03-29T13:25:07.712Z,99422.04
2018-03-29T13:27:36.219Z,99414.42
2018-03-29T13:30:04.726Z,99416.53
2018-03-29T13:32:33.195Z,99401.78
2018-03-29T13:35:01.685Z,99408.97
2018-03-29T13:37:30.169Z,99416.84
2018-03-29T13:39:58.621Z,99408.75
2018-03-29T13:42:27.125Z,99407.88
2018-03-29T13:44:55.629Z,99414.17
2018-03-29T13:47:24.090Z,99407.88
2018-03-29T13:49:52.501Z,99405.61
2018-03-29T13:52:20.982Z,99406.42
2018-03-29T13:54:49.461Z,99408.01
2018-03-29T13:57:17.954Z,99407.70
2018-03-29T13:59:46.631Z,99393.56
2018-03-29T14:02:15.119Z,99406.55
2018-03-29T14:04:43.579Z,99407.60
2018-03-29T14:07:12.061Z,99409.34
2018-03-29T14:09:40.514Z,99400.73
2018-03-29T14:12:09.008Z,99407.08
2018-03-29T14:14:37.470Z,99406.64
2018-03-29T14:17:05.962Z,99405.61
2018-03-29T14:19:35.799Z,99403.37
2018-03-29T14:22:04.429Z,99399.95
2018-03-29T14:24:33.152Z,99397.05
2018-03-29T14:27:01.727Z,99403.44
2018-03-29T14:29:30.200Z,99397.55
2018-03-29T14:31:58.711Z,99407.27
2018-03-29T14:34:27.177Z,99399.95
2018-03-29T14:36:55.691Z,99387.03
2018-03-29T14:39:24.212Z,99402.56
2018-03-29T14:41:52.674Z,99402.16
2018-03-29T14:44:21.129Z,99402.62
2018-03-29T14:46:49.676Z,99397.48
2018-03-29T14:49:18.114Z,99413.70
2018-03-29T14:51:46.642Z,99400.34
2018-03-29T14:54:15.141Z,99397.36
2018-03-29T14:56:43.641Z,99409.80
2018-03-29T14:59:12.108Z,99409.67
2018-03-29T15:01:40.605Z,99407.23
2018-03-29T15:04:09.090Z,99414.55
2018-03-29T15:06:37.555Z,99413.86
2018-03-29T15:09:06.103Z,99415.11
2018-03-29T15:11:34.554Z,99419.13
2018-03-29T15:14:03.046Z,99412.29
2018-03-29T15:16:31.542Z,99412.37
2018-03-29T15:19:00.021Z,99405.02
2018-03-29T15:21:28.471Z,99407.83
2018-03-29T15:23:56.958Z,99414.27
2018-03-29T15:26:25.510Z,99411.61
2018-03-29T15:28:53.980Z,99414.75
2018-03-29T15:31:22.434Z,99418.69
2018-03-29T15:33:50.941Z,99421.47
2018-03-29T15:36:19.434Z,99423.39
2018-03-29T15:38:47.899Z,99419.09
2018-03-29T15:41:16.392Z,99428.69
2018-03-29T15:43:44.891Z,99428.87
2018-03-29T15:46:13.385Z,99423.97
2018-03-29T15:48:41.870Z,99436.70
2018-03-29T15:51:10.370Z,99440.12
2018-03-29T15:53:38.834Z,99438.73
2018-03-29T15:56:07.329Z,99442.16
2018-03-29T15:58:35.782Z,99445.34
2018-03-29T16:01:04.287Z,99443.73
2018-03-29T16:03:32.750Z,99445.41
2018-03-29T16:06:01.205Z,99451.02
2018-03-29T16:08:29.693Z,99461.13
2018-03-29T16:10:58.182Z,99467.97
2018-03-29T16:13:26.667Z,99468.83
2018-03-29T16:15:55.125Z,99453.97
2018-03-29T16:18:24.503Z,99468.56
2018-03-29T16:20:52.981Z,99478.69
2018-03-29T16:23:21.488Z,99477.61
2018-03-29T16:25:49.980Z,99481.44
2018-03-29T16:28:18.463Z,99482.26
2018-03-29T16:30:46.962Z,99491.44
2018-03-29T16:33:15.428Z,99489.05
2018-03-29T16:35:43.922Z,99491.80
2018-03-29T16:38:12.373Z,99478.11
2018-03-29T16:40:40.878Z,99487.93
2018-03-29T16:43:09.371Z,99494.61
2018-03-29T16:45:37.866Z,99496.76
2018-03-29T16:48:06.373Z,99504.35
2018-03-29T16:50:34.834Z,99501.62
2018-03-29T16:53:03.345Z,99502.49
2018-03-29T16:55:31.849Z,99508.34
2018-03-29T16:58:00.327Z,99514.81
2018-03-29T17:00:28.844Z,99524.59
2018-03-29T17:02:57.356Z,99525.61
2018-03-29T17:05:25.854Z,99532.20
2018-03-29T17:07:54.314Z,99525.05
2018-03-29T17:10:22.774Z,99526.08
2018-03-29T17:12:51.282Z,99544.45
2018-03-29T17:15:19.749Z,99545.47
2018-03-29T17:17:48.245Z,99544.33
2018-03-29T17:20:16.758Z,99551.20
2018-03-29T17:22:45.263Z,99546.95
2018-03-29T17:25:13.758Z,99547.73
2018-03-29T17:27:42.226Z,99544.45
2018-03-29T17:30:10.722Z,99552.17
2018-03-29T17:32:39.177Z,99554.99
2018-03-29T17:35:07.680Z,99549.30
2018-03-29T17:37:36.138Z,99561.38
2018-03-29T17:40:04.590Z,99565.82
2018-03-29T17:42:33.078Z,99567.76
2018-03-29T17:45:01.562Z,99573.25
2018-03-29T17:47:30.057Z,99569.21
2018-03-29T17:49:58.578Z,99575.50
2018-03-29T17:52:27.038Z,99576.13
2018-03-29T17:54:55.554Z,99576.86
2018-03-29T17:57:24.017Z,99584.22
2018-03-29T17:59:52.522Z,99595.60
2018-03-29T18:02:21.046Z,99598.77
2018-03-29T18:04:49.517Z,99588.41
2018-03-29T18:07:18.006Z,99595.00
2018-03-29T18:09:46.478Z,99594.36
2018-03-29T18:12:14.969Z,99601.50
2018-03-29T18:14:43.434Z,99597.66
2018-03-29T18:17:11.954Z,99603.74
2018-03-29T18:19:40.417Z,99600.21
2018-03-29T18:22:08.917Z,99596.65
2018-03-29T18:24:37.406Z,99601.06
2018-03-29T18:27:05.906Z,99602.25
2018-03-29T18:29:34.416Z,99610.94
2018-03-29T18:32:02.878Z,99614.06
2018-03-29T18:34:31.385Z,99619.16
2018-03-29T18:36:59.849Z,99623.94
2018-03-29T18:39:28.366Z,99618.88
2018-03-29T18:41:56.832Z,99620.27
2018-03-29T18:44:25.327Z,99623.80
2018-03-29T18:46:53.929Z,99627.77
2018-03-29T18:49:22.393Z,99616.19
2018-03-29T18:51:50.853Z,99635.44
2018-03-29T18:54:19.348Z,99640.98
2018-03-29T18:56:47.855Z,99644.83
2018-03-29T18:59:16.353Z,99645.14
2018-03-29T19:01:44.834Z,99647.23
2018-03-29T19:04:13.345Z,99650.96
2018-03-29T19:06:41.823Z,99653.56
2018-03-29T19:09:10.293Z,99652.30
2018-03-29T19:11:38.794Z,99649.14
2018-03-29T19:14:07.254Z,99658.77
2018-03-29T19:16:35.757Z,99669.31
2018-03-29T19:19:04.262Z,99668.09
2018-03-29T19:21:32.724Z,99665.92
2018-03-29T19:24:01.226Z,99671.53
2018-03-29T19:26:29.694Z,99682.84
2018-03-29T19:28:58.198Z,99678.37
2018-03-29T19:31:26.698Z,99679.77
2018-03-29T19:33:55.158Z,99685.79
2018-03-29T19:36:23.653Z,99682.13
2018-03-29T19:38:52.142Z,99687.15
2018-03-29T19:41:20.643Z,99685.13
2018-03-29T19:43:49.110Z,99683.59
2018-03-29T19:46:17.601Z,99696.20
2018-03-29T19:48:46.065Z,99696.70
2018-03-29T19:51:14.610Z,99708.05
2018-03-29T19:53:43.070Z,99704.08
2018-03-29T19:56:11.579Z,99714.03
2018-03-29T19:58:40.070Z,99702.37
2018-03-29T20:01:08.577Z,99716.87
2018-03-29T20:03:37.072Z,99716.41
2018-03-29T20:06:05.562Z,99725.13
2018-03-29T20:08:34.077Z,99725.36
2018-03-29T20:11:02.566Z,99737.96
2018-03-29T20:13:31.084Z,99736.57
2018-03-29T20:15:59.598Z,99740.03
2018-03-29T20:18:28.080Z,99737.26
2018-03-29T20:20:56.603Z,99746.99
2018-03-29T20:23:25.085Z,99747.44
2018-03-29T20:25:53.556Z,99743.51
2018-03-29T20:28:22.069Z,99747.61
2018-03-29T20:30:50.580Z,99744.55
2018-03-29T20:33:19.077Z,99754.02
2018-03-29T20:35:47.541Z,99752.26
2018-03-29T20:38:15.997Z,99734.52
2018-03-29T20:40:44.541Z,99742.72
2018-03-29T20:43:13.010Z,99736.33
2018-03-29T20:45:41.521Z,99746.28
2018-03-29T20:48:09.994Z,99748.30
2018-03-29T20:50:38.506Z,99759.56
2018-03-29T20:53:07.020Z,99755.20
2018-03-29T20:55:35.510Z,99760.41
2018-03-29T20:58:03.974Z,99759.40
2018-03-29T21:00:32.485Z,99764.63
2018-03-29T21:03:00.998Z,99775.56
2018-03-29T21:05:29.493Z,99783.89
2018-03-29T21:07:57.998Z,99790.38
2018-03-29T21:10:26.478Z,99783.08
2018-03-29T21:12:55.152Z,99787.73
2018-03-29T21:15:23.630Z,99788.95
2018-03-29T21:17:52.168Z,99782.13
2018-03-29T21:20:20.635Z,99786.44
2018-03-29T21:22:49.120Z,99789.27
2018-03-29T21:25:17.613Z,99789.42
2018-03-29T21:27:46.133Z,99789.83
2018-03-29T21:30:14.590Z,99785.48
2018-03-29T21:32:43.066Z,99793.03
2018-03-29T21:35:11.587Z,99798.50
2018-03-29T21:37:40.042Z,99799.61
2018-03-29T21:40:08.569Z,99808.22
2018-03-29T21:42:37.031Z,99808.30
2018-03-29T21:45:05.598Z,99813.53
2018-03-29T21:47:34.123Z,99822.94
2018-03-29T21:50:02.587Z,99829.57
2018-03-29T21:52:31.122Z,99818.02
2018-03-29T21:54:59.597Z,99817.28
2018-03-29T21:57:28.133Z,99811.81
2018-03-29T21:59:56.591Z,99810.04
2018-03-29T22:02:25.091Z,99808.16
2018-03-29T22:04:53.566Z,99808.58
2018-03-29T22:07:22.058Z,99815.31
2018-03-29T22:09:50.518Z,99818.36
2018-03-29T22:12:19.023Z,99814.25
2018-03-29T22:14:47.509Z,99801.53
2018-03-29T22:17:15.999Z,99805.25
2018-03-29T22:19:44.494Z,99811.34
2018-03-29T22:22:12.954Z,99815.31
2018-03-29T22:24:41.463Z,99817.61
2018-03-29T22:27:09.973Z,99817.22
2018-03-29T22:29:38.466Z,99827.97
2018-03-29T22:32:06.930Z,99829.38
2018-03-29T22:34:35.424Z,99822.29
2018-03-29T22:37:03.914Z,99832.20
2018-03-29T22:39:32.366Z,99824.78
2018-03-29T22:42:00.855Z,99839.52
2018-03-29T22:44:29.345Z,99845.02
2018-03-29T22:46:57.833Z,99849.00
2018-03-29T22:49:26.337Z,99850.06
2018-03-29T22:51:54.834Z,99843.49
2018-03-29T22:54:23.289Z,99853.44
2018-03-29T22:56:51.830Z,99855.24
2018-03-29T22:59:20.338Z,99869.48
2018-03-29T23:01:48.834Z,99861.63
2018-03-29T23:04:17.322Z,99860.73
2018-03-29T23:06:45.839Z,99853.05
2018-03-29T23:09:14.309Z,99857.87
2018-03-29T23:11:42.806Z,99858.52
2018-03-29T23:14:11.263Z,99867.76
2018-03-29T23:16:39.753Z,99874.21
2018-03-29T23:19:08.245Z,99859.67
2018-03-29T23:21:36.706Z,99860.93
2018-03-29T23:24:05.238Z,99858.64
2018-03-29T23:26:33.742Z,99851.69
2018-03-29T23:29:02.280Z,99849.52
2018-03-29T23:31:30.726Z,99849.44
2018-03-29T23:33:59.243Z,99858.38
2018-03-29T23:36:27.733Z,99856.21
2018-03-29T23:38:56.244Z,99847.88
2018-03-29T23:41:24.735Z,99847.39
2018-03-29T23:43:53.259Z,99836.33
2018-03-29T23:46:21.747Z,99846.33
2018-03-29T23:48:50.262Z,99855.23
2018-03-29T23:51:18.726Z,99861.06
2018-03-29T23:53:47.181Z,99860.84
2018-03-29T23:56:15.709Z,99863.89
2018-03-29T23:58:44.162Z,99863.59
